Time;durP1;ratioP1;P1;durP2;ratioP2;P2;SDS_P1;SDS_P2;PMS_P1;PMS_P2;Temp;Humidity;BMP_temperature;BMP_pressure;BME280_temperature;BME280_humidity;BME280_pressure;Samples;Min_cycle;Max_cycle;Signal;HPM_P1;HPM_P2
2022/01/10 00:01:18;;;;;;;;;;;;;;;26.95;55.98;95640.12;626749;226;64826;-66
2022/01/10 00:03:46;;;;;;;;;;;;;;;26.93;57.17;95647.01;626710;226;67147;-65
2022/01/10 00:06:14;;;;;;;;;;;;;;;26.94;56.39;95651.27;626644;226;64913;-65
2022/01/10 00:08:41;;;;;;;;;;;;;;;26.94;57.38;95643.17;626667;226;62705;-65
2022/01/10 00:11:09;;;;;;;;;;;;;;;26.91;55.88;95647.34;626327;226;64936;-65
2022/01/10 00:13:38;;;;;;;;;;;;;;;26.90;56.12;95648.47;626389;225;65806;-65
2022/01/10 00:16:05;;;;;;;;;;;;;;;26.90;56.31;95651.17;626701;226;63595;-65
2022/01/10 00:18:33;;;;;;;;;;;;;;;26.92;57.88;95651.59;626670;226;67190;-65
2022/01/10 00:21:00;;;;;;;;;;;;;;;26.90;57.01;95653.87;626718;226;67245;-66
2022/01/10 00:23:28;;;;;;;;;;;;;;;26.85;56.47;95651.41;626697;226;64882;-65
2022/01/10 00:25:56;;;;;;;;;;;;;;;26.84;56.32;95652.52;626656;226;64794;-65
2022/01/10 00:28:23;;;;;;;;;;;;;;;26.85;56.19;95656.80;626766;226;64779;-65
2022/01/10 00:30:51;;;;;;;;;;;;;;;26.86;55.68;95661.05;626706;226;65224;-65
2022/01/10 00:33:18;;;;;;;;;;;;;;;26.83;57.79;95655.56;626699;226;67098;-65
2022/01/10 00:35:47;;;;;;;;;;;;;;;26.83;56.80;95652.88;622640;226;67407;-65
2022/01/10 00:38:14;;;;;;;;;;;;;;;26.81;55.87;95652.42;626689;226;65174;-66
2022/01/10 00:40:42;;;;;;;;;;;;;;;26.80;56.59;95657.03;626220;226;67218;-66
2022/01/10 00:43:17;;;;;;;;;;;;;;;26.80;56.59;95648.95;626676;226;64790;-66
2022/01/10 00:45:40;;;;;;;;;;;;;;;26.81;57.17;95641.64;626527;225;65005;-65
2022/01/10 00:48:08;;;;;;;;;;;;;;;26.78;57.99;95638.49;626683;226;64959;-66
2022/01/10 00:50:36;;;;;;;;;;;;;;;26.77;55.54;95638.85;626588;226;67000;-65
2022/01/10 00:53:04;;;;;;;;;;;;;;;26.76;56.45;95638.08;625978;226;65435;-65
2022/01/10 00:55:33;;;;;;;;;;;;;;;26.77;57.20;95639.63;625944;226;66820;-65
2022/01/10 00:58:00;;;;;;;;;;;;;;;26.71;56.77;95638.31;625931;226;65482;-65
2022/01/10 01:00:28;;;;;;;;;;;;;;;26.69;56.88;95634.38;625913;226;63486;-65
2022/01/10 01:02:58;;;;;;;;;;;;;;;26.71;56.75;95632.92;625909;226;67877;-66
2022/01/10 01:05:26;;;;;;;;;;;;;;;26.70;56.98;95623.25;625882;225;67746;-66
2022/01/10 01:07:54;;;;;;;;;;;;;;;26.71;57.08;95619.44;625959;226;65178;-66
2022/01/10 01:13:21;;;;;;;;;;;;;;;26.69;57.28;95624.38;625949;226;67688;-65
2022/01/10 01:15:56;;;;;;;;;;;;;;;26.68;56.19;95624.71;625485;226;65106;-63
2022/01/10 01:25:57;;;;;;;;;;;;;;;26.64;56.88;95624.63;625886;226;68030;-65
2022/01/10 01:28:24;;;;;;;;;;;;;;;26.61;57.77;95630.69;625882;226;67048;-65
2022/01/10 01:30:52;;;;;;;;;;;;;;;26.60;58.53;95639.91;625925;226;64894;-65
2022/01/10 01:33:19;;;;;;;;;;;;;;;26.61;57.61;95630.69;625926;226;67166;-65
2022/01/10 01:35:47;;;;;;;;;;;;;;;26.59;58.86;95640.23;625921;226;64496;-65
2022/01/10 01:38:15;;;;;;;;;;;;;;;26.56;57.74;95636.31;625954;226;64992;-65
2022/01/10 01:40:50;;;;;;;;;;;;;;;26.60;58.28;95633.72;625924;224;67200;-65
2022/01/10 01:43:12;;;;;;;;;;;;;;;26.53;57.48;95634.30;625747;226;64162;-65
2022/01/10 01:45:41;;;;;;;;;;;;;;;26.53;58.22;95629.70;625939;226;62616;-65
2022/01/10 01:48:09;;;;;;;;;;;;;;;26.54;57.41;95625.09;625933;224;66999;-65
2022/01/10 01:50:37;;;;;;;;;;;;;;;26.53;57.98;95624.30;625836;226;67527;-65
2022/01/10 01:53:05;;;;;;;;;;;;;;;26.50;57.64;95624.18;624813;227;65764;-65
2022/01/10 01:55:33;;;;;;;;;;;;;;;26.51;58.64;95613.08;624796;227;66929;-65
2022/01/10 01:58:01;;;;;;;;;;;;;;;26.48;57.55;95610.26;624805;227;66744;-65
2022/01/10 02:00:29;;;;;;;;;;;;;;;26.47;58.24;95616.78;624812;227;65181;-65
2022/01/10 02:02:57;;;;;;;;;;;;;;;26.46;57.96;95623.28;624843;227;67018;-65
2022/01/10 02:05:26;;;;;;;;;;;;;;;26.44;57.71;95610.16;624768;227;67386;-65
2022/01/10 02:07:53;;;;;;;;;;;;;;;26.42;57.08;95615.10;624744;227;64939;-66
2022/01/10 02:10:22;;;;;;;;;;;;;;;26.43;57.41;95615.88;624780;227;64258;-66
2022/01/10 02:12:49;;;;;;;;;;;;;;;26.41;57.83;95618.13;624766;227;67065;-65
2022/01/10 02:15:41;;;;;;;;;;;;;;;26.40;57.15;95619.25;624792;226;43908;-65
2022/01/10 02:18:00;;;;;;;;;;;;;;;26.40;58.44;95614.64;624413;226;65332;-65
2022/01/10 02:20:29;;;;;;;;;;;;;;;26.41;57.16;95618.92;624735;227;66442;-65
2022/01/10 02:22:56;;;;;;;;;;;;;;;26.44;57.96;95618.25;624719;227;65269;-65
2022/01/10 02:25:42;;;;;;;;;;;;;;;26.44;57.76;95618.25;624847;227;37669;-65
2022/01/10 02:28:11;;;;;;;;;;;;;;;26.41;56.74;95620.81;624752;227;67521;-65
2022/01/10 02:30:39;;;;;;;;;;;;;;;26.39;57.03;95631.16;624741;227;64473;-65
2022/01/10 02:33:06;;;;;;;;;;;;;;;26.40;59.17;95635.42;624804;227;65584;-65
2022/01/10 02:35:40;;;;;;;;;;;;;;;26.39;58.06;95623.08;624756;227;65029;-65
2022/01/10 02:38:05;;;;;;;;;;;;;;;26.42;59.03;95622.41;624670;226;65661;-65
2022/01/10 02:40:34;;;;;;;;;;;;;;;26.41;59.76;95627.02;624727;227;65833;-65
2022/01/10 02:43:03;;;;;;;;;;;;;;;26.38;59.31;95624.19;624728;227;65133;-65
2022/01/10 02:45:30;;;;;;;;;;;;;;;26.38;58.25;95634.96;624717;226;63048;-65
2022/01/10 02:47:58;;;;;;;;;;;;;;;26.39;58.37;95636.55;624745;227;67402;-65
2022/01/10 02:50:26;;;;;;;;;;;;;;;26.36;58.72;95632.63;624742;227;67704;-64
2022/01/10 02:52:54;;;;;;;;;;;;;;;26.34;58.39;95627.56;624730;227;65885;-65
2022/01/10 02:55:22;;;;;;;;;;;;;;;26.33;57.65;95634.09;624777;227;67064;-65
2022/01/10 02:57:50;;;;;;;;;;;;;;;26.34;58.74;95638.34;624835;227;64506;-65
2022/01/10 03:00:19;;;;;;;;;;;;;;;26.33;58.22;95646.77;624690;227;65190;-65
2022/01/10 03:02:50;;;;;;;;;;;;;;;26.30;56.93;95652.81;624797;227;67260;-65
2022/01/10 03:05:16;;;;;;;;;;;;;;;26.34;58.37;95646.42;624696;226;67916;-65
2022/01/10 03:07:43;;;;;;;;;;;;;;;26.31;59.26;95641.71;624769;227;62666;-65
2022/01/10 03:10:11;;;;;;;;;;;;;;;26.31;57.96;95649.02;624755;227;64924;-65
2022/01/10 03:12:39;;;;;;;;;;;;;;;26.28;58.80;95645.09;624804;227;67393;-65
2022/01/10 03:15:08;;;;;;;;;;;;;;;26.29;58.60;95635.88;624776;227;62490;-65
2022/01/10 03:17:36;;;;;;;;;;;;;;;26.25;57.91;95644.98;624762;227;65051;-65
2022/01/10 03:20:04;;;;;;;;;;;;;;;26.26;57.98;95631.16;624747;227;65505;-65
2022/01/10 03:22:32;;;;;;;;;;;;;;;26.26;58.82;95636.55;624797;227;63003;-65
2022/01/10 03:24:59;;;;;;;;;;;;;;;26.26;59.31;95647.33;624784;227;67648;-65
2022/01/10 03:27:27;;;;;;;;;;;;;;;26.22;60.71;95641.06;624790;227;67670;-64
2022/01/10 03:29:55;;;;;;;;;;;;;;;26.21;58.51;95639.47;624769;227;64473;-65
2022/01/10 03:32:25;;;;;;;;;;;;;;;26.24;57.85;95638.01;624791;227;67915;-65
2022/01/10 03:34:57;;;;;;;;;;;;;;;26.23;57.24;95637.23;624842;226;45545;-64
2022/01/10 03:37:25;;;;;;;;;;;;;;;26.23;59.63;95644.53;624831;227;64874;-65
2022/01/10 03:39:53;;;;;;;;;;;;;;;26.21;58.72;95644.08;624589;226;67693;-65
2022/01/10 03:42:21;;;;;;;;;;;;;;;26.24;59.30;95646.09;624814;227;66482;-65
2022/01/10 03:44:48;;;;;;;;;;;;;;;26.24;58.27;95654.17;624801;227;62984;-64
2022/01/10 03:47:18;;;;;;;;;;;;;;;26.18;58.15;95652.83;624828;227;67468;-65
2022/01/10 03:49:45;;;;;;;;;;;;;;;26.17;59.66;95652.05;624729;227;67344;-65
2022/01/10 03:52:14;;;;;;;;;;;;;;;26.18;59.06;95647.45;624793;226;65039;-65
2022/01/10 03:54:41;;;;;;;;;;;;;;;26.17;57.91;95646.66;624783;227;67505;-65
2022/01/10 03:57:10;;;;;;;;;;;;;;;26.18;57.78;95640.15;624792;227;66822;-65
2022/01/10 03:59:38;;;;;;;;;;;;;;;26.15;58.46;95634.66;624789;227;63133;-64
2022/01/10 04:02:06;;;;;;;;;;;;;;;26.19;58.27;95630.16;624806;227;67349;-65
2022/01/10 04:04:36;;;;;;;;;;;;;;;26.09;57.21;95637.58;624799;227;64501;-64
2022/01/10 04:07:05;;;;;;;;;;;;;;;26.01;57.75;95635.00;624797;227;65723;-66
2022/01/10 04:09:32;;;;;;;;;;;;;;;26.01;58.73;95645.77;624788;227;67228;-65
2022/01/10 04:12:00;;;;;;;;;;;;;;;25.98;58.49;95641.84;624820;227;67588;-65
2022/01/10 04:14:28;;;;;;;;;;;;;;;25.97;58.58;95647.55;624799;227;63791;-65
2022/01/10 04:16:55;;;;;;;;;;;;;;;25.96;58.96;95654.06;624824;227;64815;-65
2022/01/10 04:19:23;;;;;;;;;;;;;;;25.96;59.50;95651.38;624772;227;67365;-65
2022/01/10 04:21:51;;;;;;;;;;;;;;;25.93;59.25;95655.52;624801;227;65778;-65
2022/01/10 04:24:18;;;;;;;;;;;;;;;25.93;58.98;95654.74;624814;227;64932;-65
2022/01/10 04:26:46;;;;;;;;;;;;;;;25.90;59.03;95651.59;624784;227;67477;-65
2022/01/10 04:29:16;;;;;;;;;;;;;;;25.91;58.50;95657.75;624834;227;65425;-65
2022/01/10 04:31:43;;;;;;;;;;;;;;;25.90;59.08;95651.59;624833;227;64895;-65
2022/01/10 04:34:12;;;;;;;;;;;;;;;25.90;60.59;95650.81;624865;226;44365;-66
2022/01/10 04:36:40;;;;;;;;;;;;;;;25.90;60.77;95665.05;624833;227;64970;-66
2022/01/10 04:39:08;;;;;;;;;;;;;;;25.90;60.22;95662.36;624796;227;64668;-65
2022/01/10 04:41:37;;;;;;;;;;;;;;;25.90;61.32;95662.36;624764;227;67735;-65
2022/01/10 04:44:06;;;;;;;;;;;;;;;25.89;60.08;95662.68;624787;227;62684;-66
2022/01/10 04:46:34;;;;;;;;;;;;;;;25.89;60.33;95666.18;624753;227;65312;-65
2022/01/10 04:49:02;;;;;;;;;;;;;;;25.89;60.66;95676.95;624815;227;67205;-65
2022/01/10 04:51:32;;;;;;;;;;;;;;;25.89;60.48;95679.64;624701;226;63672;-65
2022/01/10 04:53:59;;;;;;;;;;;;;;;25.90;61.79;95686.58;624630;227;65561;-64
2022/01/10 04:56:27;;;;;;;;;;;;;;;25.89;59.57;95684.21;624782;227;67412;-64
2022/01/10 04:58:55;;;;;;;;;;;;;;;25.89;60.91;95681.52;624748;227;65014;-64
2022/01/10 05:01:23;;;;;;;;;;;;;;;25.88;62.76;95678.05;624809;227;67678;-64
2022/01/10 05:03:52;;;;;;;;;;;;;;;25.87;60.47;95686.47;624866;226;44491;-65
2022/01/10 05:06:20;;;;;;;;;;;;;;;25.89;62.46;95682.33;624791;227;65640;-64
2022/01/10 05:08:48;;;;;;;;;;;;;;;25.88;61.44;95685.34;624754;227;64597;-65
2022/01/10 05:11:18;;;;;;;;;;;;;;;25.82;59.90;95684.75;624562;226;45446;-65
2022/01/10 05:13:46;;;;;;;;;;;;;;;25.84;62.92;95689.84;624719;227;65201;-65
2022/01/10 05:16:15;;;;;;;;;;;;;;;25.83;60.61;95689.03;624782;227;64709;-65
2022/01/10 05:18:43;;;;;;;;;;;;;;;25.79;62.79;95698.88;624845;227;67725;-65
2022/01/10 05:21:12;;;;;;;;;;;;;;;25.79;60.40;95703.47;624767;227;63025;-65
2022/01/10 05:23:40;;;;;;;;;;;;;;;25.82;61.27;95708.97;624727;227;67199;-65
2022/01/10 05:26:08;;;;;;;;;;;;;;;25.78;60.54;95702.70;624849;227;65656;-65
2022/01/10 05:28:36;;;;;;;;;;;;;;;25.77;64.03;95706.48;624756;227;65759;-66
2022/01/10 05:31:03;;;;;;;;;;;;;;;25.78;59.70;95707.27;624826;227;67147;-66
2022/01/10 05:33:33;;;;;;;;;;;;;;;25.76;60.51;95707.62;624678;226;49054;-66
2022/01/10 05:36:00;;;;;;;;;;;;;;;25.75;59.86;95718.70;624758;227;65033;-66
2022/01/10 05:38:28;;;;;;;;;;;;;;;25.73;59.86;95716.36;624397;227;67155;-66
2022/01/10 05:40:55;;;;;;;;;;;;;;;25.77;61.04;95721.84;624773;227;66859;-66
2022/01/10 05:43:23;;;;;;;;;;;;;;;25.75;59.57;95724.08;624800;227;64940;-66
2022/01/10 05:45:51;;;;;;;;;;;;;;;25.74;60.11;95731.38;624598;227;64540;-66
2022/01/10 05:48:25;;;;;;;;;;;;;;;25.72;60.27;95730.13;624785;227;67170;-65
2022/01/10 05:50:52;;;;;;;;;;;;;;;25.74;62.28;95736.75;624680;226;66017;-66
2022/01/10 05:53:20;;;;;;;;;;;;;;;25.71;60.18;95737.42;624804;227;64532;-66
2022/01/10 05:55:48;;;;;;;;;;;;;;;25.72;60.56;95735.52;624778;227;67174;-66
2022/01/10 05:58:16;;;;;;;;;;;;;;;25.72;59.60;95744.36;624823;227;65110;-66
2022/01/10 06:00:44;;;;;;;;;;;;;;;25.69;59.57;95743.13;624800;227;67707;-66
2022/01/10 06:03:11;;;;;;;;;;;;;;;25.72;62.96;95749.75;624728;227;67292;-66
2022/01/10 06:05:41;;;;;;;;;;;;;;;25.67;60.25;95745.38;624636;227;45059;-66
2022/01/10 06:08:09;;;;;;;;;;;;;;;25.68;60.06;95760.39;624783;226;67662;-66
2022/01/10 06:10:39;;;;;;;;;;;;;;;25.68;63.33;95751.55;624855;227;64332;-66
2022/01/10 06:13:17;;;;;;;;;;;;;;;25.68;61.65;95748.85;624272;227;46509;-66
2022/01/10 06:15:45;;;;;;;;;;;;;;;25.67;61.22;95747.27;624777;227;67181;-66
2022/01/10 06:18:12;;;;;;;;;;;;;;;25.68;62.52;95759.61;624791;227;66942;-66
2022/01/10 06:20:40;;;;;;;;;;;;;;;25.67;61.45;95756.14;624778;227;63053;-66
2022/01/10 06:23:09;;;;;;;;;;;;;;;25.66;60.44;95757.24;624755;227;67186;-66
2022/01/10 06:25:37;;;;;;;;;;;;;;;25.67;60.76;95756.14;624801;227;65759;-66
2022/01/10 06:28:05;;;;;;;;;;;;;;;25.69;61.59;95764.64;624764;227;65109;-66
2022/01/10 06:30:33;;;;;;;;;;;;;;;25.67;60.82;95755.33;624754;226;67168;-66
2022/01/10 06:33:02;;;;;;;;;;;;;;;25.67;60.68;95768.78;624621;227;67393;-66
2022/01/10 06:35:29;;;;;;;;;;;;;;;25.68;61.78;95768.47;624762;227;65979;-65
2022/01/10 06:37:57;;;;;;;;;;;;;;;25.66;60.03;95764.53;624810;227;66993;-65
2022/01/10 06:40:24;;;;;;;;;;;;;;;25.65;60.73;95766.44;624792;227;65363;-65
2022/01/10 06:42:52;;;;;;;;;;;;;;;25.67;60.03;95768.78;624719;227;65680;-66
2022/01/10 06:45:20;;;;;;;;;;;;;;;25.69;59.81;95769.25;624641;227;67233;-66
2022/01/10 06:47:49;;;;;;;;;;;;;;;25.67;59.33;95774.98;624715;227;64938;-66
2022/01/10 06:50:17;;;;;;;;;;;;;;;25.69;61.04;95775.41;624668;227;63060;-66
2022/01/10 06:52:46;;;;;;;;;;;;;;;25.68;61.51;95783.83;624749;226;66983;-63
2022/01/10 06:55:14;;;;;;;;;;;;;;;25.66;60.74;95776.08;624758;227;64843;-64
2022/01/10 06:57:42;;;;;;;;;;;;;;;25.64;59.29;95777.52;624679;227;65435;-65
2022/01/10 07:00:10;;;;;;;;;;;;;;;25.69;60.30;95786.17;624642;227;67122;-65
2022/01/10 07:02:40;;;;;;;;;;;;;;;25.77;59.94;95779.14;624721;226;43988;-71
2022/01/10 07:05:07;;;;;;;;;;;;;;;25.76;59.07;95784.88;624767;227;62893;-67
2022/01/10 07:07:35;;;;;;;;;;;;;;;25.78;59.15;95785.30;624738;227;67696;-65
2022/01/10 07:10:05;;;;;;;;;;;;;;;25.81;59.20;95787.33;624688;226;48629;-66
2022/01/10 07:12:33;;;;;;;;;;;;;;;25.80;56.54;95785.77;624771;227;65088;-65
2022/01/10 07:15:05;;;;;;;;;;;;;;;25.78;58.10;95788.80;624050;226;46020;-68
2022/01/10 07:17:33;;;;;;;;;;;;;;;25.77;55.46;95792.59;618867;227;66865;-62
2022/01/10 07:20:01;;;;;;;;;;;;;;;25.81;56.46;95798.09;614170;229;66554;-65
2022/01/10 07:22:30;;;;;;;;;;;;;;;25.79;56.70;95794.97;617302;228;43917;-65
2022/01/10 07:24:58;;;;;;;;;;;;;;;25.78;56.49;95806.83;617355;229;65009;-64
2022/01/10 07:27:26;;;;;;;;;;;;;;;25.81;56.49;95798.91;617593;229;62782;-64
2022/01/10 07:29:53;;;;;;;;;;;;;;;25.90;56.04;95802.31;616996;229;64997;-63
2022/01/10 07:32:21;;;;;;;;;;;;;;;25.93;55.80;95806.25;617618;229;64904;-64
2022/01/10 07:34:48;;;;;;;;;;;;;;;25.95;54.65;95811.31;617417;229;62843;-64
2022/01/10 07:37:18;;;;;;;;;;;;;;;25.97;55.79;95800.98;617356;229;65755;-64
2022/01/10 07:39:45;;;;;;;;;;;;;;;25.99;57.99;95806.83;617589;229;67169;-65
2022/01/10 07:42:13;;;;;;;;;;;;;;;26.02;58.60;95808.84;617567;229;64853;-66
2022/01/10 07:44:42;;;;;;;;;;;;;;;25.97;57.36;95809.05;617458;228;43919;-67
2022/01/10 07:47:09;;;;;;;;;;;;;;;26.00;57.59;95808.39;617596;229;64755;-66
2022/01/10 07:49:38;;;;;;;;;;;;;;;26.02;57.73;95815.02;617605;229;64878;-67
2022/01/10 07:52:06;;;;;;;;;;;;;;;26.03;57.78;95802.36;615971;229;67051;-64
2022/01/10 07:54:35;;;;;;;;;;;;;;;26.05;56.36;95800.89;615421;230;66589;-65
2022/01/10 07:57:03;;;;;;;;;;;;;;;26.04;56.91;95812.78;615314;230;64936;-64
2022/01/10 07:59:30;;;;;;;;;;;;;;;26.04;56.96;95802.02;615319;230;67236;-64
2022/01/10 08:01:58;;;;;;;;;;;;;;;26.06;57.61;95815.16;615233;230;67239;-65
2022/01/10 08:04:25;;;;;;;;;;;;;;;26.06;56.80;95815.16;615285;230;62545;-65
2022/01/10 08:06:53;;;;;;;;;;;;;;;26.07;56.71;95804.04;615338;230;64912;-64
2022/01/10 08:09:22;;;;;;;;;;;;;;;26.09;56.52;95809.10;615435;230;67063;-61
2022/01/10 08:11:54;;;;;;;;;;;;;;;26.07;57.66;95822.11;615333;230;64933;-67
2022/01/10 08:14:21;;;;;;;;;;;;;;;26.10;57.82;95810.67;615296;230;64826;-63
2022/01/10 08:16:48;;;;;;;;;;;;;;;26.03;56.75;95805.06;615169;230;64879;-65
2022/01/10 08:19:16;;;;;;;;;;;;;;;26.11;58.19;95812.26;615289;230;63022;-65
2022/01/10 08:21:43;;;;;;;;;;;;;;;26.13;58.18;95826.16;615275;230;64327;-63
2022/01/10 08:24:11;;;;;;;;;;;;;;;26.13;59.71;95834.23;615364;230;67048;-64
2022/01/10 08:26:40;;;;;;;;;;;;;;;26.14;57.53;95822.36;615229;230;65163;-63
2022/01/10 08:29:08;;;;;;;;;;;;;;;26.16;58.69;95825.48;615313;230;67283;-63
2022/01/10 08:31:35;;;;;;;;;;;;;;;26.17;57.77;95823.60;615403;230;66929;-63
2022/01/10 08:34:05;;;;;;;;;;;;;;;26.19;57.73;95821.34;615285;230;65018;-63
2022/01/10 08:36:34;;;;;;;;;;;;;;;26.23;59.46;95820.34;615281;230;65001;-60
2022/01/10 08:39:02;;;;;;;;;;;;;;;26.21;59.28;95822.58;615278;230;66583;-65
2022/01/10 08:41:29;;;;;;;;;;;;;;;26.28;59.47;95820.14;615113;230;64917;-65
2022/01/10 08:43:57;;;;;;;;;;;;;;;26.27;58.62;95823.15;615307;230;64871;-65
2022/01/10 08:46:24;;;;;;;;;;;;;;;26.29;58.23;95829.78;614987;230;67176;-66
2022/01/10 08:48:52;;;;;;;;;;;;;;;26.30;57.73;95831.37;614635;228;64849;-65
2022/01/10 08:51:20;;;;;;;;;;;;;;;26.32;59.24;95829.11;615274;229;67153;-66
2022/01/10 08:53:48;;;;;;;;;;;;;;;26.33;58.76;95824.53;615344;230;66875;-65
2022/01/10 08:56:15;;;;;;;;;;;;;;;26.35;59.69;95827.66;615248;230;65086;-65
2022/01/10 08:58:42;;;;;;;;;;;;;;;26.38;59.23;95831.59;615362;230;67241;-64
2022/01/10 09:01:12;;;;;;;;;;;;;;;26.38;59.35;95823.51;615278;230;67077;-65
2022/01/10 09:03:40;;;;;;;;;;;;;;;26.41;60.68;95830.91;615396;230;65267;-68
2022/01/10 09:06:07;;;;;;;;;;;;;;;26.42;59.79;95830.59;615347;230;67085;-64
2022/01/10 09:08:36;;;;;;;;;;;;;;;26.42;61.06;95827.90;615339;230;66751;-65
2022/01/10 09:11:07;;;;;;;;;;;;;;;26.44;60.18;95836.44;615317;230;62920;-65
2022/01/10 09:13:34;;;;;;;;;;;;;;;26.44;58.52;95825.66;615344;230;67448;-65
2022/01/10 09:16:06;;;;;;;;;;;;;;;26.48;58.71;95823.08;615315;230;67231;-63
2022/01/10 09:18:33;;;;;;;;;;;;;;;26.50;59.57;95828.92;615369;230;63010;-65
2022/01/10 09:21:01;;;;;;;;;;;;;;;26.52;59.84;95827.50;615358;230;64954;-61
2022/01/10 09:23:28;;;;;;;;;;;;;;;26.50;59.58;95829.70;615301;230;64817;-60
2022/01/10 09:25:56;;;;;;;;;;;;;;;26.55;59.56;95831.44;615347;230;62963;-63
2022/01/10 09:28:27;;;;;;;;;;;;;;;26.51;56.36;95827.82;615489;230;47249;-63
2022/01/10 09:30:56;;;;;;;;;;;;;;;26.56;59.29;95835.69;615284;230;66976;-64
2022/01/10 09:33:23;;;;;;;;;;;;;;;26.55;59.54;95831.44;615398;230;65203;-63
2022/01/10 09:35:51;;;;;;;;;;;;;;;26.55;59.33;95831.44;615305;230;66707;-59
2022/01/10 09:38:18;;;;;;;;;;;;;;;26.55;58.34;95837.60;615321;230;66960;-63
2022/01/10 09:40:46;;;;;;;;;;;;;;;26.54;59.71;95829.84;615351;230;65044;-63
2022/01/10 09:43:15;;;;;;;;;;;;;;;26.55;58.74;95832.22;615285;230;67265;-63
2022/01/10 09:45:43;;;;;;;;;;;;;;;26.58;60.12;95829.98;615307;230;67198;-63
2022/01/10 09:48:10;;;;;;;;;;;;;;;26.56;58.84;95841.08;615344;230;62684;-62
2022/01/10 09:50:38;;;;;;;;;;;;;;;26.58;59.14;95836.15;615276;229;65083;-63
2022/01/10 09:53:06;;;;;;;;;;;;;;;26.58;59.68;95836.15;615317;230;65025;-62
2022/01/10 09:55:34;;;;;;;;;;;;;;;26.57;60.71;95831.86;615428;230;62926;-59
2022/01/10 09:58:03;;;;;;;;;;;;;;;26.53;59.85;95825.59;615393;230;66999;-63
2022/01/10 10:00:31;;;;;;;;;;;;;;;26.55;59.78;95836.83;615352;230;66810;-63
2022/01/10 10:02:59;;;;;;;;;;;;;;;26.56;61.02;95833.00;615315;230;65398;-63
2022/01/10 10:05:26;;;;;;;;;;;;;;;26.59;59.72;95832.32;615320;230;66737;-63
2022/01/10 10:07:54;;;;;;;;;;;;;;;26.59;60.43;95837.71;615411;230;66654;-61
2022/01/10 10:10:22;;;;;;;;;;;;;;;26.56;59.32;95827.61;615372;230;63739;-61
2022/01/10 10:12:51;;;;;;;;;;;;;;;26.58;60.48;95832.67;615307;230;64325;-60
2022/01/10 10:15:27;;;;;;;;;;;;;;;26.58;60.54;95833.45;615314;228;66993;-63
2022/01/10 10:17:49;;;;;;;;;;;;;;;26.60;60.43;95833.91;614803;230;65107;-64
2022/01/10 10:20:20;;;;;;;;;;;;;;;26.58;61.24;95835.37;615322;230;66867;-62
2022/01/10 10:22:50;;;;;;;;;;;;;;;26.60;58.32;95833.91;615414;230;66721;-63
2022/01/10 10:25:18;;;;;;;;;;;;;;;26.61;59.89;95840.86;615312;230;64914;-63
2022/01/10 10:27:47;;;;;;;;;;;;;;;26.63;59.92;95835.94;615317;230;67215;-63
2022/01/10 10:30:16;;;;;;;;;;;;;;;26.65;60.50;95841.75;615326;230;66127;-63
2022/01/10 10:32:43;;;;;;;;;;;;;;;26.63;60.28;95841.32;615343;230;65272;-63
2022/01/10 10:35:11;;;;;;;;;;;;;;;26.60;61.07;95839.30;615334;230;64821;-63
2022/01/10 10:37:40;;;;;;;;;;;;;;;26.61;60.95;95843.56;615379;230;67128;-64
2022/01/10 10:40:09;;;;;;;;;;;;;;;26.59;58.36;95843.09;615384;230;65083;-64
2022/01/10 10:42:42;;;;;;;;;;;;;;;26.64;58.66;95845.58;615326;230;67234;-64
2022/01/10 10:45:11;;;;;;;;;;;;;;;26.67;59.61;95844.12;615110;230;67065;-60
2022/01/10 10:47:40;;;;;;;;;;;;;;;26.67;58.93;95844.12;615399;230;65095;-62
2022/01/10 10:50:09;;;;;;;;;;;;;;;26.67;57.83;95846.81;615365;230;64463;-64
2022/01/10 10:52:38;;;;;;;;;;;;;;;26.67;58.23;95847.59;618318;229;65112;-63
2022/01/10 10:55:07;;;;;;;;;;;;;;;26.66;59.65;95845.25;624519;226;65052;-61
2022/01/10 10:57:35;;;;;;;;;;;;;;;26.63;58.53;95844.02;618759;229;65126;-61
2022/01/10 11:00:04;;;;;;;;;;;;;;;26.63;59.15;95848.59;618823;229;67156;-61
2022/01/10 11:02:32;;;;;;;;;;;;;;;26.63;58.46;95848.59;618466;228;65065;-60
2022/01/10 11:05:03;;;;;;;;;;;;;;;26.62;57.52;95855.12;618730;229;66960;-60
2022/01/10 11:07:31;;;;;;;;;;;;;;;26.63;57.73;95856.67;618627;228;67102;-60
2022/01/10 11:09:59;;;;;;;;;;;;;;;26.63;58.59;95862.06;618705;228;64978;-60
2022/01/10 11:12:27;;;;;;;;;;;;;;;26.62;57.89;95861.28;618842;229;65053;-60
2022/01/10 11:14:56;;;;;;;;;;;;;;;26.62;58.92;95858.59;618713;229;67158;-61
2022/01/10 11:17:24;;;;;;;;;;;;;;;26.59;55.86;95859.27;618727;229;63790;-61
2022/01/10 11:20:09;;;;;;;;;;;;;;;26.62;58.69;95863.20;618693;229;66895;-60
2022/01/10 11:22:40;;;;;;;;;;;;;;;26.62;57.27;95861.28;618802;229;65003;-60
2022/01/10 11:25:24;;;;;;;;;;;;;;;26.61;57.23;95856.25;618669;229;65071;-61
2022/01/10 11:27:53;;;;;;;;;;;;;;;26.59;57.80;95859.27;618766;228;64960;-61
2022/01/10 11:30:25;;;;;;;;;;;;;;;26.61;57.86;95867.81;618722;229;67171;-61
2022/01/10 11:33:00;;;;;;;;;;;;;;;26.62;57.12;95866.67;618725;229;63671;-60
2022/01/10 11:35:28;;;;;;;;;;;;;;;26.63;57.57;95872.84;618733;228;67172;-68
2022/01/10 11:37:56;;;;;;;;;;;;;;;26.62;59.16;95863.98;618763;229;66772;-68
2022/01/10 11:40:24;;;;;;;;;;;;;;;26.61;58.47;95861.64;618734;229;65001;-67
2022/01/10 11:42:54;;;;;;;;;;;;;;;26.60;57.81;95871.64;618796;229;67172;-67
2022/01/10 11:45:21;;;;;;;;;;;;;;;26.63;57.96;95875.54;618680;229;67398;-68
2022/01/10 11:48:06;;;;;;;;;;;;;;;26.62;58.87;95866.67;618760;229;65068;-67
2022/01/10 11:50:33;;;;;;;;;;;;;;;26.64;58.88;95877.91;618699;229;67021;-66
2022/01/10 11:53:02;;;;;;;;;;;;;;;26.64;58.52;95880.61;618696;229;64979;-69
2022/01/10 11:55:35;;;;;;;;;;;;;;;26.64;58.99;95877.91;618711;229;62734;-68
2022/01/10 11:58:04;;;;;;;;;;;;;;;26.64;57.73;95883.30;618792;229;65254;-69
2022/01/10 12:00:35;;;;;;;;;;;;;;;26.64;57.95;95877.91;618689;229;67128;-69
2022/01/10 12:03:03;;;;;;;;;;;;;;;26.66;57.65;95883.77;618750;229;62914;-68
2022/01/10 12:05:31;;;;;;;;;;;;;;;26.66;58.36;95885.67;618785;229;64529;-68
2022/01/10 12:07:58;;;;;;;;;;;;;;;26.67;58.58;95888.02;618637;229;67071;-69
2022/01/10 12:10:26;;;;;;;;;;;;;;;26.67;58.49;95892.63;618806;229;62752;-68
2022/01/10 12:12:55;;;;;;;;;;;;;;;26.67;58.22;95904.19;618735;229;67272;-68
2022/01/10 12:15:23;;;;;;;;;;;;;;;26.68;58.53;95900.39;618526;228;67200;-68
2022/01/10 12:17:50;;;;;;;;;;;;;;;26.68;57.30;95894.19;618770;229;65050;-68
2022/01/10 12:20:20;;;;;;;;;;;;;;;26.68;58.62;95897.70;618629;228;44698;-68
2022/01/10 12:22:47;;;;;;;;;;;;;;;26.69;58.84;95906.56;618736;229;64985;-67
2022/01/10 12:25:14;;;;;;;;;;;;;;;26.70;57.88;95918.91;618767;229;62892;-68
2022/01/10 12:27:42;;;;;;;;;;;;;;;26.68;58.92;95918.45;618759;229;65870;-69
2022/01/10 12:30:10;;;;;;;;;;;;;;;26.69;57.67;95912.73;618735;229;64899;-68
2022/01/10 12:32:38;;;;;;;;;;;;;;;26.70;58.63;95919.69;618762;229;62983;-69
2022/01/10 12:35:06;;;;;;;;;;;;;;;26.68;58.41;95911.17;618612;229;67213;-69
2022/01/10 12:37:33;;;;;;;;;;;;;;;26.69;58.83;95918.13;618790;229;67238;-69
2022/01/10 12:40:01;;;;;;;;;;;;;;;26.69;58.44;95923.52;618695;229;64986;-69
2022/01/10 12:42:28;;;;;;;;;;;;;;;26.68;58.77;95927.34;618723;229;64883;-69
2022/01/10 12:44:56;;;;;;;;;;;;;;;26.71;58.02;95932.05;618751;229;64800;-69
2022/01/10 12:47:26;;;;;;;;;;;;;;;26.70;58.70;95935.86;618626;229;62883;-67
2022/01/10 12:49:54;;;;;;;;;;;;;;;26.71;58.34;95932.05;618654;229;67254;-66
2022/01/10 12:52:22;;;;;;;;;;;;;;;26.61;54.44;95926.31;617897;229;66830;-66
2022/01/10 12:54:50;;;;;;;;;;;;;;;26.70;55.88;95937.77;617633;229;64878;-67
2022/01/10 12:57:18;;;;;;;;;;;;;;;26.66;58.51;95937.66;617592;229;67357;-67
2022/01/10 12:59:45;;;;;;;;;;;;;;;26.71;58.33;95942.03;617644;229;67329;-67
2022/01/10 13:02:13;;;;;;;;;;;;;;;26.70;58.58;95946.64;617637;229;64906;-69
2022/01/10 13:04:41;;;;;;;;;;;;;;;26.71;58.93;95950.11;617428;229;64944;-66